Time;durP1;ratioP1;P1;durP2;ratioP2;P2;SDS_P1;SDS_P2;PMS_P1;PMS_P2;Temp;Humidity;BMP_temperature;BMP_pressure;BME280_temperature;BME280_humidity;BME280_pressure;Samples;Min_cycle;Max_cycle;Signal;HPM_P1;HPM_P2
2022/01/23 00:02:02;;;;;;;10.55;8.15;;;-2.40;99.90;;;;;;4991532;28;20610;-73
2022/01/23 00:04:29;;;;;;;11.25;7.68;;;-2.40;99.90;;;;;;4990862;28;20235;-67
2022/01/23 00:07:07;;;;;;;8.60;6.63;;;-2.40;99.90;;;;;;4955647;28;20200;-67
2022/01/23 00:09:33;;;;;;;11.88;7.65;;;-2.50;99.90;;;;;;4955874;29;20635;-67
2022/01/23 00:12:06;;;;;;;11.60;7.93;;;-2.50;99.90;;;;;;4971793;28;20177;-67
2022/01/23 00:17:18;;;;;;;8.80;6.25;;;-2.50;99.90;;;;;;4957172;28;20247;-75
2022/01/23 00:20:03;;;;;;;12.80;6.18;;;-2.60;99.90;;;;;;4955400;29;20643;-67
2022/01/23 00:22:38;;;;;;;11.68;6.93;;;-2.60;99.90;;;;;;4971812;28;20556;-73
2022/01/23 00:30:47;;;;;;;7.28;5.65;;;-2.70;99.90;;;;;;4956999;29;20180;-73
2022/01/23 00:33:14;;;;;;;11.48;6.97;;;-2.70;99.90;;;;;;4971524;28;20734;-68
2022/01/23 00:35:43;;;;;;;12.27;7.00;;;-2.70;99.90;;;;;;4971395;28;20181;-67
2022/01/23 00:38:11;;;;;;;12.60;7.40;;;-2.80;99.90;;;;;;4971140;28;20213;-67
2022/01/23 00:40:48;;;;;;;12.93;7.57;;;-2.80;99.90;;;;;;4971095;28;20243;-73
2022/01/23 00:43:40;;;;;;;19.02;7.70;;;-2.80;99.90;;;;;;4971132;28;20224;-67
2022/01/23 00:46:23;;;;;;;16.27;8.75;;;-2.80;99.90;;;;;;4955611;28;20193;-67
2022/01/23 00:51:28;;;;;;;13.68;7.15;;;-2.90;99.90;;;;;;4956456;28;20197;-67
2022/01/23 00:53:56;;;;;;;12.77;7.28;;;-2.90;99.90;;;;;;4971105;28;20244;-68
2022/01/23 00:56:33;;;;;;;15.00;8.73;;;-2.90;99.90;;;;;;4971065;28;20266;-73
2022/01/23 00:59:04;;;;;;;9.07;6.90;;;-2.90;99.90;;;;;;4970941;28;20201;-73
2022/01/23 01:01:35;;;;;;;12.05;7.90;;;-3.00;99.90;;;;;;4970986;28;20188;-73
2022/01/23 01:04:07;;;;;;;10.77;6.45;;;-3.00;99.90;;;;;;4970675;28;20323;-73
2022/01/23 01:06:35;;;;;;;12.23;7.38;;;-3.00;99.90;;;;;;4987541;28;20772;-73
2022/01/23 01:09:07;;;;;;;9.07;6.85;;;-3.00;99.90;;;;;;4973606;28;20694;-73
2022/01/23 01:17:10;;;;;;;11.50;6.80;;;-3.10;99.90;;;;;;4975473;28;20176;-67
2022/01/23 01:30:56;;;;;;;12.40;7.95;;;-3.20;99.90;;;;;;4975507;28;20188;-67
2022/01/23 01:36:15;;;;;;;15.68;7.88;;;-3.20;99.90;;;;;;4975080;28;20606;-67
2022/01/23 01:38:42;;;;;;;12.68;8.05;;;-3.20;99.90;;;;;;4989646;28;20681;-72
2022/01/23 01:41:09;;;;;;;10.55;7.47;;;-3.20;99.90;;;;;;4990039;28;20188;-68
2022/01/23 01:43:39;;;;;;;13.80;7.32;;;-3.20;99.90;;;;;;4989583;28;20224;-75
2022/01/23 01:46:05;;;;;;;12.63;7.78;;;-3.20;99.90;;;;;;4989973;28;20193;-67
2022/01/23 01:48:33;;;;;;;10.90;6.80;;;-3.20;99.90;;;;;;4989545;28;20234;-73
2022/01/23 01:51:00;;;;;;;9.27;6.95;;;-3.20;99.90;;;;;;4990315;28;20185;-67
2022/01/23 01:53:27;;;;;;;11.00;7.25;;;-3.20;99.90;;;;;;4989830;28;20227;-68
2022/01/23 01:56:05;;;;;;;13.13;7.13;;;-3.20;99.90;;;;;;4973939;28;20658;-73
2022/01/23 02:09:42;;;;;;;16.10;8.10;;;-3.30;99.90;;;;;;4975050;28;20327;-67
2022/01/23 02:51:40;;;;;;;8.70;6.55;;;-3.70;99.90;;;;;;4978062;28;20669;-73
2022/01/23 02:56:59;;;;;;;15.07;7.63;;;-3.70;99.90;;;;;;4977878;28;20169;-74
2022/01/23 02:59:29;;;;;;;11.07;6.82;;;-3.70;99.90;;;;;;4976408;28;20192;-67
2022/01/23 03:02:04;;;;;;;15.77;8.35;;;-3.80;99.90;;;;;;4976143;28;20199;-73
2022/01/23 03:04:37;;;;;;;13.18;7.38;;;-3.80;99.90;;;;;;4976022;28;20656;-67
2022/01/23 03:07:16;;;;;;;9.18;6.50;;;-3.80;99.90;;;;;;4976135;28;20248;-73
2022/01/23 03:14:57;;;;;;;13.02;7.50;;;-3.80;99.90;;;;;;4977352;28;20177;-67
2022/01/23 03:33:33;;;;;;;13.40;6.30;;;-3.90;99.90;;;;;;4976518;28;20614;-74
2022/01/23 03:36:19;;;;;;;13.77;6.75;;;-4.00;99.90;;;;;;4975675;28;20216;-73
2022/01/23 03:38:47;;;;;;;8.75;5.53;;;-4.00;99.90;;;;;;4959446;28;20296;-67
2022/01/23 03:41:26;;;;;;;9.73;6.50;;;-4.00;99.90;;;;;;4959613;28;20188;-73
2022/01/23 03:44:03;;;;;;;9.32;6.38;;;-3.90;99.90;;;;;;4975456;28;20228;-73
2022/01/23 03:49:32;;;;;;;8.13;5.80;;;-3.90;99.90;;;;;;4977471;28;20278;-67
2022/01/23 03:52:16;;;;;;;9.48;5.95;;;-3.90;99.90;;;;;;4976823;28;20164;-67
2022/01/23 03:54:45;;;;;;;8.52;5.60;;;-3.90;99.90;;;;;;4959307;28;20184;-67
2022/01/23 03:57:14;;;;;;;9.70;5.70;;;-3.90;99.90;;;;;;4959225;28;20196;-73
2022/01/23 03:59:43;;;;;;;11.57;6.45;;;-3.90;99.90;;;;;;4959456;28;20189;-67
2022/01/23 04:02:11;;;;;;;12.55;6.38;;;-3.80;99.90;;;;;;4959132;28;20678;-73
2022/01/23 04:04:41;;;;;;;8.02;5.20;;;-3.80;99.90;;;;;;4974858;28;20318;-67
2022/01/23 04:07:30;;;;;;;9.35;6.13;;;-3.80;99.90;;;;;;4975151;28;20212;-74
2022/01/23 04:09:59;;;;;;;13.65;6.90;;;-3.90;99.90;;;;;;4958841;28;20189;-73
2022/01/23 04:12:41;;;;;;;12.13;5.85;;;-3.80;99.90;;;;;;4975177;28;20196;-67
2022/01/23 04:15:22;;;;;;;11.23;5.60;;;-3.90;99.90;;;;;;4975338;28;20200;-67
2022/01/23 04:45:44;;;;;;;9.63;6.00;;;-4.10;99.90;;;;;;4975680;28;20167;-67
2022/01/23 05:04:37;;;;;;;13.10;5.50;;;-4.20;99.90;;;;;;4975407;28;20220;-67
2022/01/23 05:07:08;;;;;;;7.25;5.20;;;-4.20;99.90;;;;;;4958298;28;20706;-73
2022/01/23 05:09:47;;;;;;;11.95;5.97;;;-4.20;99.90;;;;;;4974302;28;20191;-73
2022/01/23 05:12:13;;;;;;;8.52;5.00;;;-4.20;99.90;;;;;;4974102;28;20606;-67
2022/01/23 05:14:44;;;;;;;9.82;5.72;;;-4.20;99.90;;;;;;4974031;28;20227;-67
2022/01/23 05:17:14;;;;;;;8.15;5.85;;;-4.20;99.90;;;;;;4973856;28;20201;-73
2022/01/23 05:19:42;;;;;;;47.08;21.25;;;-4.20;99.90;;;;;;4957728;28;20184;-67
2022/01/23 05:22:20;;;;;;;20.30;15.43;;;-4.20;99.90;;;;;;4974061;28;20228;-73
2022/01/23 05:24:49;;;;;;;23.20;16.23;;;-4.20;99.90;;;;;;4974901;28;20216;-70
2022/01/23 05:27:22;;;;;;;25.13;16.25;;;-4.20;99.90;;;;;;4973930;28;20601;-73
2022/01/23 05:29:57;;;;;;;22.40;16.13;;;-4.30;99.90;;;;;;4974048;28;20187;-73
2022/01/23 05:32:27;;;;;;;26.20;17.38;;;-4.30;99.90;;;;;;4973842;28;20211;-73
2022/01/23 05:35:03;;;;;;;27.45;20.40;;;-4.30;99.90;;;;;;4973503;28;20647;-73
2022/01/23 05:37:32;;;;;;;31.80;22.80;;;-4.30;99.90;;;;;;4973664;28;20210;-73
2022/01/23 05:40:01;;;;;;;25.27;20.27;;;-4.30;99.90;;;;;;4973483;28;20188;-67
2022/01/23 05:42:27;;;;;;;31.70;22.00;;;-4.30;99.90;;;;;;4973204;28;20208;-73
2022/01/23 05:45:11;;;;;;;16.60;13.30;;;-4.30;99.90;;;;;;4973048;28;20196;-74
2022/01/23 05:47:37;;;;;;;12.18;10.07;;;-4.30;99.90;;;;;;4957510;28;20200;-67
2022/01/23 05:50:08;;;;;;;9.65;8.15;;;-4.30;99.90;;;;;;4973758;28;20191;-67
2022/01/23 05:52:35;;;;;;;11.48;6.57;;;-4.30;99.90;;;;;;4957315;28;20196;-73
2022/01/23 05:55:02;;;;;;;10.68;7.90;;;-4.30;99.90;;;;;;4958090;28;20254;-70
2022/01/23 05:57:30;;;;;;;14.07;8.82;;;-4.30;99.90;;;;;;4961530;28;20705;-73
2022/01/23 05:59:58;;;;;;;9.02;7.72;;;-4.40;99.90;;;;;;4961375;28;20204;-74
2022/01/23 06:02:28;;;;;;;12.25;7.20;;;-4.40;99.90;;;;;;4977447;28;20824;-67
2022/01/23 06:04:57;;;;;;;12.48;7.43;;;-4.30;99.90;;;;;;4977451;28;20240;-73
2022/01/23 06:10:36;;;;;;;11.25;8.23;;;-4.30;99.90;;;;;;4946484;28;20288;-73
2022/01/23 06:13:04;;;;;;;13.82;8.13;;;-4.30;99.90;;;;;;4993264;28;20231;-73
2022/01/23 06:15:38;;;;;;;14.95;9.23;;;-4.30;99.90;;;;;;4992476;28;20176;-74
2022/01/23 06:18:04;;;;;;;20.42;11.80;;;-4.30;99.90;;;;;;4993214;28;20311;-67
2022/01/23 06:20:30;;;;;;;19.50;13.00;;;-4.30;99.90;;;;;;4978456;28;20177;-68
2022/01/23 06:23:00;;;;;;;26.55;12.65;;;-4.30;99.90;;;;;;4993343;28;20583;-67
2022/01/23 06:25:32;;;;;;;25.08;11.05;;;-4.30;99.90;;;;;;4977100;28;20545;-73
2022/01/23 06:27:59;;;;;;;16.30;10.32;;;-4.30;99.90;;;;;;4993432;28;20271;-67
2022/01/23 06:30:29;;;;;;;14.95;9.52;;;-4.30;99.90;;;;;;4978342;28;20702;-73
2022/01/23 06:32:59;;;;;;;13.63;10.45;;;-4.20;99.90;;;;;;4992861;28;20205;-68
2022/01/23 06:35:26;;;;;;;17.83;9.50;;;-4.20;99.90;;;;;;4993046;28;20173;-67
2022/01/23 06:38:09;;;;;;;15.50;8.82;;;-4.20;99.90;;;;;;4993269;28;20308;-72
2022/01/23 06:40:57;;;;;;;16.80;8.75;;;-4.20;99.90;;;;;;4993212;28;20278;-73
2022/01/23 06:43:24;;;;;;;11.95;8.93;;;-4.20;99.90;;;;;;4992471;28;20270;-73
2022/01/23 06:45:54;;;;;;;15.98;9.02;;;-4.20;99.90;;;;;;4992748;28;20271;-73
2022/01/23 06:48:22;;;;;;;15.27;8.73;;;-4.20;99.90;;;;;;4993116;28;20200;-67
2022/01/23 06:50:55;;;;;;;15.43;8.73;;;-4.20;99.90;;;;;;4977784;28;20662;-67
2022/01/23 06:53:22;;;;;;;14.43;8.35;;;-4.20;99.90;;;;;;4992854;28;20207;-67
2022/01/23 06:55:48;;;;;;;9.88;6.95;;;-4.10;99.90;;;;;;4992509;28;20184;-67
2022/01/23 06:58:19;;;;;;;11.75;7.72;;;-4.10;99.90;;;;;;4992639;28;20205;-67
2022/01/23 07:00:46;;;;;;;15.52;7.90;;;-4.10;99.90;;;;;;4992609;28;20213;-74
2022/01/23 07:03:31;;;;;;;15.43;9.48;;;-4.00;99.90;;;;;;4992301;28;20237;-73
2022/01/23 07:06:05;;;;;;;13.27;9.93;;;-3.90;99.90;;;;;;4992543;28;20278;-73
2022/01/23 07:08:35;;;;;;;16.00;8.85;;;-3.90;99.90;;;;;;4990848;28;20251;-72
2022/01/23 07:11:07;;;;;;;12.55;7.50;;;-3.80;99.90;;;;;;4991948;28;20188;-73
2022/01/23 07:13:38;;;;;;;20.48;11.18;;;-3.70;99.90;;;;;;4977574;28;20215;-73
2022/01/23 07:16:08;;;;;;;18.65;9.88;;;-3.70;99.90;;;;;;4976044;28;20176;-74
2022/01/23 07:18:35;;;;;;;16.73;9.75;;;-3.60;99.90;;;;;;4992078;28;20208;-67
2022/01/23 07:21:08;;;;;;;12.48;8.70;;;-3.50;99.90;;;;;;4992309;28;20263;-72
2022/01/23 07:23:35;;;;;;;12.10;7.68;;;-3.30;99.90;;;;;;4991942;28;20323;-73
2022/01/23 07:26:02;;;;;;;12.15;8.90;;;-3.00;99.90;;;;;;4991115;28;20216;-67
2022/01/23 07:28:38;;;;;;;23.45;12.40;;;-2.60;99.90;;;;;;4977204;28;20211;-73
2022/01/23 07:31:21;;;;;;;21.15;11.88;;;-2.30;99.90;;;;;;4992318;28;20208;-73
2022/01/23 07:33:47;;;;;;;21.67;12.75;;;-2.00;99.90;;;;;;4975676;28;20302;-68
2022/01/23 07:36:16;;;;;;;18.13;11.63;;;-1.80;99.90;;;;;;4991976;28;20187;-73
2022/01/23 07:38:45;;;;;;;12.95;8.75;;;-1.70;99.90;;;;;;4991972;28;20568;-73
2022/01/23 07:41:28;;;;;;;12.70;8.35;;;-1.60;99.90;;;;;;4991704;28;20538;-73
2022/01/23 07:44:04;;;;;;;14.95;9.57;;;-1.50;99.90;;;;;;4991723;28;20231;-73
2022/01/23 07:46:35;;;;;;;15.93;8.93;;;-1.30;99.90;;;;;;4990776;28;20231;-73
2022/01/23 07:49:12;;;;;;;13.65;9.30;;;-1.20;99.90;;;;;;4991614;28;20208;-74
2022/01/23 07:51:39;;;;;;;12.77;8.20;;;-1.00;99.90;;;;;;4991645;28;20594;-74
2022/01/23 07:54:20;;;;;;;10.60;7.82;;;-0.60;99.90;;;;;;4991722;28;20224;-73
2022/01/23 07:56:47;;;;;;;9.38;6.82;;;-0.10;99.90;;;;;;4991622;28;20175;-67
2022/01/23 07:59:16;;;;;;;11.77;7.53;;;0.50;99.90;;;;;;4991702;28;20672;-74
2022/01/23 08:01:42;;;;;;;8.90;7.00;;;1.00;99.90;;;;;;4991494;28;20647;-68
2022/01/23 08:04:10;;;;;;;11.90;7.47;;;1.60;99.90;;;;;;4974371;28;20849;-68
2022/01/23 08:06:53;;;;;;;11.30;7.35;;;2.30;99.90;;;;;;4991200;28;20235;-69
2022/01/23 08:09:37;;;;;;;13.38;8.15;;;2.90;99.90;;;;;;4991726;28;20192;-74
2022/01/23 08:12:05;;;;;;;6.80;6.20;;;3.60;99.90;;;;;;4991312;28;20187;-68
2022/01/23 08:14:34;;;;;;;10.68;6.93;;;4.50;99.90;;;;;;4991247;28;20604;-74
2022/01/23 08:17:04;;;;;;;16.73;8.45;;;5.30;99.90;;;;;;4991168;28;20216;-74
2022/01/23 08:19:32;;;;;;;10.70;7.20;;;6.20;99.90;;;;;;4991104;28;20189;-74
2022/01/23 08:22:02;;;;;;;12.35;6.65;;;6.90;99.90;;;;;;4990883;28;20180;-74
2022/01/23 08:24:34;;;;;;;9.20;7.60;;;7.60;98.60;;;;;;4974368;28;20685;-74
2022/01/23 08:27:00;;;;;;;12.80;8.25;;;8.30;96.60;;;;;;4990702;28;20553;-68
2022/01/23 08:29:41;;;;;;;9.38;7.97;;;8.80;95.30;;;;;;4991150;28;20184;-73
2022/01/23 08:32:11;;;;;;;9.38;7.22;;;9.30;93.20;;;;;;4990641;28;20200;-68
2022/01/23 08:34:46;;;;;;;9.85;7.70;;;9.80;92.80;;;;;;4990974;28;20590;-74
2022/01/23 08:37:13;;;;;;;11.82;8.25;;;10.30;90.80;;;;;;4990817;28;20242;-68
2022/01/23 08:39:42;;;;;;;14.60;9.38;;;10.70;88.70;;;;;;4990611;28;20242;-68
2022/01/23 08:42:16;;;;;;;12.55;8.30;;;11.00;87.40;;;;;;4990367;28;20197;-68
2022/01/23 08:44:44;;;;;;;10.35;8.68;;;11.40;85.70;;;;;;4990648;28;20658;-68
2022/01/23 08:47:21;;;;;;;10.15;8.38;;;11.70;82.70;;;;;;4990394;28;20662;-74
2022/01/23 08:49:50;;;;;;;14.35;8.07;;;11.80;81.20;;;;;;4990717;28;20180;-69
2022/01/23 08:52:22;;;;;;;12.85;8.30;;;12.00;81.40;;;;;;4990792;28;20216;-68
2022/01/23 08:54:51;;;;;;;9.60;6.80;;;12.10;78.80;;;;;;4989856;28;20363;-74
2022/01/23 08:57:27;;;;;;;10.50;7.32;;;12.00;79.50;;;;;;4990232;28;20719;-69
2022/01/23 08:59:54;;;;;;;9.98;8.13;;;11.80;80.00;;;;;;4990263;28;20180;-69
2022/01/23 09:02:25;;;;;;;8.05;6.90;;;11.60;80.30;;;;;;4974232;28;20244;-75
2022/01/23 09:04:51;;;;;;;9.80;7.25;;;11.30;81.40;;;;;;4990202;28;20743;-68
2022/01/23 09:07:18;;;;;;;10.50;8.38;;;11.00;81.60;;;;;;4973803;28;20370;-75
2022/01/23 09:09:45;;;;;;;11.32;7.10;;;10.80;81.70;;;;;;4974238;28;20653;-69
2022/01/23 09:14:43;;;;;;;9.75;5.95;;;10.80;79.30;;;;;;4975797;28;20221;-69
2022/01/23 09:17:10;;;;;;;8.77;7.10;;;10.90;79.70;;;;;;4975302;28;20198;-68
2022/01/23 09:19:39;;;;;;;10.45;6.57;;;10.90;79.60;;;;;;4973973;28;20192;-69
2022/01/23 09:22:05;;;;;;;11.07;7.20;;;10.70;79.00;;;;;;4973897;28;20177;-69
2022/01/23 09:24:32;;;;;;;11.20;7.20;;;10.60;81.00;;;;;;4973789;28;20237;-68
2022/01/23 09:27:13;;;;;;;8.60;7.10;;;10.40;79.90;;;;;;4973991;28;20196;-74
2022/01/23 09:29:43;;;;;;;8.52;7.45;;;10.30;81.10;;;;;;4973583;28;20192;-68
2022/01/23 09:32:14;;;;;;;10.32;7.57;;;10.20;81.00;;;;;;4975036;28;20192;-68
2022/01/23 09:34:42;;;;;;;7.85;5.95;;;10.20;81.20;;;;;;4957800;28;20188;-69
2022/01/23 09:37:12;;;;;;;12.82;7.80;;;10.20;82.80;;;;;;4957684;28;20235;-68
2022/01/23 09:39:42;;;;;;;14.32;8.75;;;10.40;81.50;;;;;;4957520;28;20192;-69
2022/01/23 09:42:22;;;;;;;10.82;7.50;;;10.70;81.60;;;;;;4957975;28;20206;-68
2022/01/23 09:44:59;;;;;;;10.80;8.23;;;10.60;81.10;;;;;;4957755;28;20228;-69
2022/01/23 09:47:27;;;;;;;10.07;7.35;;;10.70;80.80;;;;;;4973684;28;20203;-68
2022/01/23 09:49:55;;;;;;;10.63;8.27;;;10.80;80.50;;;;;;4957484;28;20187;-69
2022/01/23 09:52:29;;;;;;;12.25;9.50;;;10.80;80.60;;;;;;4973628;28;20691;-75
2022/01/23 09:55:08;;;;;;;11.00;9.40;;;10.90;81.00;;;;;;4973918;28;20195;-75
2022/01/23 09:57:37;;;;;;;9.45;7.95;;;11.10;81.60;;;;;;4957458;28;20564;-68
2022/01/23 10:00:11;;;;;;;11.05;6.53;;;11.40;79.70;;;;;;4973319;28;20188;-75
2022/01/23 10:02:41;;;;;;;9.18;7.07;;;11.70;77.40;;;;;;4957225;28;20238;-74
2022/01/23 10:05:12;;;;;;;11.23;7.63;;;11.80;76.70;;;;;;4972905;28;20235;-74
2022/01/23 10:07:41;;;;;;;8.40;6.78;;;11.70;77.40;;;;;;4990903;28;20214;-68
2022/01/23 10:10:20;;;;;;;10.82;7.18;;;11.50;77.00;;;;;;4991235;28;20192;-75
2022/01/23 10:12:51;;;;;;;9.48;6.72;;;11.50;77.90;;;;;;4990842;28;20195;-68
2022/01/23 10:15:19;;;;;;;13.38;8.68;;;11.50;77.70;;;;;;4992391;28;20157;-69
2022/01/23 10:17:53;;;;;;;12.70;8.63;;;11.50;77.80;;;;;;4990865;28;20251;-75
2022/01/23 10:20:23;;;;;;;10.85;7.50;;;11.30;78.00;;;;;;4990607;28;20180;-68
2022/01/23 10:22:51;;;;;;;9.20;7.03;;;11.00;77.70;;;;;;4990132;28;20196;-68
2022/01/23 10:25:24;;;;;;;7.60;6.80;;;10.80;79.60;;;;;;4990040;28;20283;-75
2022/01/23 10:28:04;;;;;;;8.77;7.18;;;10.40;79.90;;;;;;4990258;28;20196;-75
2022/01/23 10:30:35;;;;;;;8.10;7.30;;;10.10;81.70;;;;;;4989242;28;20610;-74
2022/01/23 10:33:21;;;;;;;9.60;7.40;;;9.80;81.10;;;;;;4990623;28;20299;-75
2022/01/23 10:36:05;;;;;;;11.23;8.60;;;9.50;82.30;;;;;;4991913;28;20180;-68
2022/01/23 10:38:36;;;;;;;10.00;7.60;;;9.30;81.30;;;;;;4992552;28;20211;-76
2022/01/23 10:41:31;;;;;;;12.02;7.40;;;9.10;82.30;;;;;;4992679;28;20176;-75
2022/01/23 10:47:33;;;;;;;11.07;8.02;;;8.80;83.20;;;;;;4997812;28;20663;-69
2022/01/23 10:50:00;;;;;;;10.75;7.88;;;8.80;82.80;;;;;;4997575;28;20283;-68
2022/01/23 10:52:33;;;;;;;11.10;7.95;;;8.70;82.40;;;;;;4996012;28;20305;-68
2022/01/23 10:55:12;;;;;;;13.18;9.75;;;8.60;83.50;;;;;;4995950;28;20191;-75
2022/01/23 10:57:40;;;;;;;11.55;8.02;;;8.50;82.90;;;;;;4995849;28;20199;-69
2022/01/23 11:00:10;;;;;;;13.23;8.85;;;8.40;84.40;;;;;;4997795;28;20180;-68
2022/01/23 11:02:47;;;;;;;11.38;8.70;;;8.20;84.50;;;;;;4995801;28;20199;-68
2022/01/23 11:05:18;;;;;;;12.43;9.40;;;8.10;84.00;;;;;;4995670;28;20589;-69
2022/01/23 11:07:48;;;;;;;14.77;9.52;;;8.00;84.50;;;;;;4995987;28;20546;-68
2022/01/23 11:10:22;;;;;;;12.90;8.90;;;7.80;85.10;;;;;;4995563;28;20545;-75
2022/01/23 11:18:12;;;;;;;11.52;8.88;;;7.40;86.70;;;;;;4996925;28;20626;-68
2022/01/23 11:20:40;;;;;;;12.30;8.57;;;7.30;87.00;;;;;;4995861;28;20648;-75
2022/01/23 11:23:20;;;;;;;14.50;10.43;;;7.20;86.90;;;;;;4995097;28;20224;-75
2022/01/23 11:26:13;;;;;;;16.15;10.90;;;7.00;86.60;;;;;;4995349;28;20171;-68
2022/01/23 11:28:48;;;;;;;12.70;9.05;;;6.90;86.80;;;;;;4995359;28;20208;-68
2022/01/23 11:31:18;;;;;;;14.30;8.85;;;6.80;87.50;;;;;;4995320;28;20298;-68
2022/01/23 11:33:46;;;;;;;11.75;7.72;;;6.60;87.90;;;;;;4995349;28;20287;-75
2022/01/23 11:36:17;;;;;;;9.02;7.70;;;6.50;86.90;;;;;;4995205;28;20262;-68
2022/01/23 11:38:47;;;;;;;9.90;7.65;;;6.50;89.30;;;;;;4995037;28;20220;-74
2022/01/23 11:55:39;;;;;;;12.30;7.93;;;6.50;88.50;;;;;;4955552;29;20229;-68
2022/01/23 11:58:05;;;;;;;12.27;8.18;;;6.60;90.00;;;;;;4981204;28;21342;-69
2022/01/23 12:00:40;;;;;;;13.73;9.65;;;6.60;89.40;;;;;;4994851;28;20821;-74
2022/01/23 12:03:19;;;;;;;13.65;9.63;;;6.60;88.90;;;;;;4994620;28;20236;-74
2022/01/23 12:05:50;;;;;;;15.35;11.40;;;6.70;87.60;;;;;;4994473;28;20219;-68
2022/01/23 12:08:40;;;;;;;13.90;11.38;;;6.60;87.50;;;;;;4994698;28;20211;-75
2022/01/23 12:16:57;;;;;;;9.15;6.90;;;6.60;86.90;;;;;;4984866;28;20184;-68
2022/01/23 12:19:27;;;;;;;10.68;6.40;;;6.50;86.00;;;;;;4994969;28;20192;-75
2022/01/23 12:21:59;;;;;;;10.13;7.88;;;6.60;85.60;;;;;;4994366;28;20212;-75
2022/01/23 12:24:29;;;;;;;12.43;8.77;;;6.60;87.60;;;;;;4994598;28;20228;-74
2022/01/23 12:27:24;;;;;;;11.88;8.65;;;6.70;88.10;;;;;;4994665;28;20271;-68
2022/01/23 12:29:51;;;;;;;9.82;7.60;;;6.70;87.50;;;;;;4986485;28;20551;-68
2022/01/23 12:32:28;;;;;;;11.88;8.35;;;6.70;87.70;;;;;;4994255;28;20200;-69
2022/01/23 12:35:05;;;;;;;8.73;6.95;;;6.70;88.10;;;;;;4994534;28;20190;-75
2022/01/23 12:37:58;;;;;;;10.20;7.25;;;6.70;87.80;;;;;;4994131;28;20195;-75
2022/01/23 12:40:43;;;;;;;21.92;15.40;;;6.80;87.60;;;;;;4993982;28;20195;-75
2022/01/23 12:43:12;;;;;;;15.57;10.48;;;6.80;87.70;;;;;;4993694;28;20298;-68
2022/01/23 12:45:49;;;;;;;9.38;6.93;;;6.70;87.80;;;;;;4993946;28;20192;-75
2022/01/23 12:48:44;;;;;;;9.48;7.85;;;6.70;88.50;;;;;;4993507;28;20684;-69
2022/01/23 12:51:13;;;;;;;10.10;7.20;;;6.70;86.80;;;;;;4986121;28;20192;-68
2022/01/23 12:53:46;;;;;;;9.45;7.55;;;6.60;87.30;;;;;;4993477;28;20688;-69
2022/01/23 12:56:21;;;;;;;10.93;6.10;;;6.60;88.80;;;;;;4993589;28;20202;-75
2022/01/23 12:58:59;;;;;;;10.82;7.30;;;6.60;87.30;;;;;;4993801;28;20231;-68
2022/01/23 13:01:28;;;;;;;10.30;7.20;;;6.60;88.10;;;;;;4993592;28;20192;-75
2022/01/23 13:03:59;;;;;;;9.27;7.50;;;6.60;86.50;;;;;;4993472;28;20223;-68
2022/01/23 13:06:34;;;;;;;8.90;6.72;;;6.50;85.80;;;;;;4993474;28;20239;-75
2022/01/23 13:09:26;;;;;;;8.50;6.68;;;6.40;86.20;;;;;;4975045;28;20222;-68
2022/01/23 13:12:06;;;;;;;9.57;6.00;;;6.40;86.70;;;;;;4974401;28;20653;-74
2022/01/23 13:18:07;;;;;;;41.80;23.42;;;6.20;87.20;;;;;;4991692;28;20270;-68
2022/01/23 13:32:12;;;;;;;8.05;5.65;;;6.10;87.30;;;;;;4990824;28;20617;-75
2022/01/23 13:35:03;;;;;;;9.50;6.68;;;6.10;86.00;;;;;;4973453;28;20183;-75
2022/01/23 13:37:43;;;;;;;9.63;5.70;;;6.10;85.70;;;;;;4972917;28;20222;-68
2022/01/23 13:40:24;;;;;;;12.00;6.53;;;6.10;85.60;;;;;;4973096;28;20657;-68
2022/01/23 14:02:46;;;;;;;10.10;8.57;;;6.40;86.30;;;;;;4994507;28;20684;-68
2022/01/23 14:05:20;;;;;;;10.20;9.10;;;6.60;86.10;;;;;;4978773;28;20716;-75
2022/01/23 14:07:55;;;;;;;9.07;7.93;;;6.70;85.90;;;;;;4993067;28;20259;-75
2022/01/23 14:10:31;;;;;;;15.50;11.60;;;6.90;85.30;;;;;;4992914;28;20602;-75
2022/01/23 14:13:24;;;;;;;7.45;6.70;;;7.20;85.40;;;;;;4992756;28;20200;-75
2022/01/23 14:15:55;;;;;;;8.73;6.60;;;7.50;83.80;;;;;;4991038;28;20293;-68
2022/01/23 14:18:30;;;;;;;8.65;6.55;;;7.70;83.10;;;;;;4997041;28;20200;-68
2022/01/23 14:21:05;;;;;;;11.02;6.85;;;7.90;82.70;;;;;;4996918;28;20291;-69
2022/01/23 14:23:36;;;;;;;11.35;7.70;;;8.20;83.80;;;;;;4996627;28;20675;-69
2022/01/23 14:26:12;;;;;;;12.90;6.95;;;8.50;83.10;;;;;;4998159;28;20626;-68
2022/01/23 14:28:45;;;;;;;14.40;7.57;;;8.80;82.50;;;;;;4996653;28;20229;-69
2022/01/23 14:31:18;;;;;;;9.63;7.50;;;9.00;83.40;;;;;;4996779;28;20180;-68
2022/01/23 14:33:48;;;;;;;9.90;7.00;;;9.10;82.00;;;;;;4996498;28;20204;-68
2022/01/23 14:36:14;;;;;;;11.68;6.45;;;9.20;82.10;;;;;;4997088;28;20676;-68
2022/01/23 14:39:03;;;;;;;9.50;6.50;;;9.20;81.90;;;;;;4996406;28;20204;-68
2022/01/23 14:41:33;;;;;;;7.07;6.07;;;9.20;81.70;;;;;;4996675;28;20274;-76
2022/01/23 14:44:01;;;;;;;7.47;6.28;;;9.20;80.80;;;;;;4996185;28;20215;-68
2022/01/23 14:46:27;;;;;;;7.38;6.00;;;9.10;80.80;;;;;;4996493;28;20180;-68
2022/01/23 14:49:00;;;;;;;7.32;5.88;;;9.00;80.80;;;;;;4995804;28;20208;-68
2022/01/23 14:51:34;;;;;;;9.73;6.40;;;8.80;81.30;;;;;;4996091;28;20217;-68
2022/01/23 14:54:01;;;;;;;10.98;7.18;;;8.70;81.20;;;;;;4996185;28;20204;-68
2022/01/23 14:56:39;;;;;;;10.38;7.00;;;8.60;81.20;;;;;;4996085;28;20267;-75
2022/01/23 14:59:26;;;;;;;13.77;8.10;;;8.40;80.80;;;;;;4996471;28;20245;-75
2022/01/23 15:02:00;;;;;;;10.15;7.43;;;8.10;81.80;;;;;;4996149;28;20226;-73
2022/01/23 15:04:28;;;;;;;12.23;9.63;;;7.70;83.00;;;;;;4995405;28;20211;-69
2022/01/23 15:07:00;;;;;;;8.13;6.30;;;7.30;83.70;;;;;;4995024;28;20267;-68
2022/01/23 15:09:27;;;;;;;8.35;6.38;;;6.90;84.20;;;;;;4995963;28;20243;-75
2022/01/23 15:11:54;;;;;;;10.02;6.88;;;6.50;84.70;;;;;;4995574;28;20309;-68
2022/01/23 15:14:21;;;;;;;8.85;6.35;;;6.20;85.20;;;;;;4995762;28;20188;-68
2022/01/23 15:16:50;;;;;;;11.43;6.57;;;5.90;86.30;;;;;;4995431;28;20609;-68
2022/01/23 15:19:36;;;;;;;11.60;6.35;;;5.60;86.40;;;;;;4995691;28;20183;-71
2022/01/23 15:22:06;;;;;;;11.15;7.30;;;5.30;86.80;;;;;;4995255;28;20270;-68
2022/01/23 15:24:32;;;;;;;12.13;8.90;;;5.00;87.30;;;;;;4995402;28;20322;-67
2022/01/23 15:26:58;;;;;;;10.00;6.93;;;4.80;87.80;;;;;;4995335;28;20266;-68
2022/01/23 15:29:25;;;;;;;9.02;6.85;;;4.50;88.50;;;;;;4994854;28;20428;-68
2022/01/23 15:31:54;;;;;;;11.88;7.35;;;4.40;88.70;;;;;;4994510;28;20180;-75
2022/01/23 15:34:21;;;;;;;9.82;6.65;;;4.20;89.20;;;;;;4994549;28;20203;-67
2022/01/23 15:36:53;;;;;;;11.30;6.28;;;4.00;89.80;;;;;;4993086;28;20180;-68
2022/01/23 15:39:20;;;;;;;13.10;9.00;;;3.90;90.10;;;;;;4993251;28;20229;-68
2022/01/23 15:41:47;;;;;;;15.13;9.40;;;3.70;90.20;;;;;;4993493;28;20176;-68
2022/01/23 15:44:16;;;;;;;15.95;9.68;;;3.60;90.30;;;;;;4993211;28;20839;-67
2022/01/23 15:46:43;;;;;;;13.32;8.20;;;3.50;90.50;;;;;;4993449;28;20180;-68
2022/01/23 15:49:19;;;;;;;17.00;9.60;;;3.40;90.70;;;;;;4993348;28;20214;-75
2022/01/23 15:51:47;;;;;;;19.58;9.45;;;3.40;90.90;;;;;;4994956;28;20184;-67
2022/01/23 15:54:16;;;;;;;13.82;8.45;;;3.30;90.80;;;;;;4995018;28;20192;-68
2022/01/23 15:56:50;;;;;;;16.17;11.68;;;3.10;90.90;;;;;;4994710;28;20191;-75
2022/01/23 15:59:17;;;;;;;21.60;14.93;;;3.00;91.20;;;;;;4994935;28;20252;-68
2022/01/23 16:01:46;;;;;;;25.60;15.23;;;2.90;91.50;;;;;;4994564;28;20211;-67
2022/01/23 16:04:25;;;;;;;25.58;16.27;;;2.80;91.50;;;;;;4996269;28;20558;-74
2022/01/23 16:07:03;;;;;;;50.70;24.95;;;2.80;91.80;;;;;;4994512;28;20413;-75
2022/01/23 16:09:34;;;;;;;36.28;17.00;;;2.70;91.80;;;;;;4994695;28;20545;-75
2022/01/23 16:12:01;;;;;;;31.52;19.65;;;2.60;91.90;;;;;;4994905;28;20184;-67
2022/01/23 16:14:27;;;;;;;20.40;13.30;;;2.50;92.00;;;;;;4994664;28;20569;-67
2022/01/23 16:16:54;;;;;;;20.63;11.50;;;2.40;92.30;;;;;;4994428;28;20191;-68
2022/01/23 16:19:26;;;;;;;19.90;10.90;;;2.30;92.40;;;;;;4994896;28;20180;-68
2022/01/23 16:21:56;;;;;;;34.90;21.70;;;2.30;92.60;;;;;;4994898;28;20196;-74
2022/01/23 16:24:25;;;;;;;42.45;23.70;;;2.20;92.50;;;;;;4995107;28;20216;-74
2022/01/23 16:26:55;;;;;;;24.75;16.92;;;2.10;92.60;;;;;;4994649;28;20207;-75
2022/01/23 16:29:31;;;;;;;25.63;15.45;;;2.10;92.80;;;;;;4994397;28;20581;-70
2022/01/23 16:32:00;;;;;;;23.08;15.65;;;2.00;92.90;;;;;;4994142;28;20560;-68
2022/01/23 16:34:30;;;;;;;16.63;12.65;;;2.00;93.10;;;;;;4994244;28;20657;-74
2022/01/23 16:36:58;;;;;;;16.27;10.70;;;1.90;93.30;;;;;;4994182;28;20274;-74
2022/01/23 16:39:24;;;;;;;12.38;9.10;;;1.90;93.50;;;;;;4993600;28;20235;-67
2022/01/23 16:41:54;;;;;;;14.00;7.75;;;1.90;93.60;;;;;;4993594;28;20271;-74
2022/01/23 16:44:26;;;;;;;12.93;9.18;;;1.90;93.60;;;;;;4993991;28;20572;-67
2022/01/23 16:47:01;;;;;;;16.13;9.88;;;1.90;93.70;;;;;;4993911;28;20179;-72
2022/01/23 16:49:31;;;;;;;15.57;8.70;;;1.90;94.10;;;;;;4994020;28;20188;-74
2022/01/23 16:52:04;;;;;;;19.60;11.30;;;1.90;94.20;;;;;;4994077;28;20184;-71